Time;durP1;ratioP1;P1;durP2;ratioP2;P2;SDS_P1;SDS_P2;PMS_P1;PMS_P2;Temp;Humidity;BMP_temperature;BMP_pressure;BME280_temperature;BME280_humidity;BME280_pressure;Samples;Min_cycle;Max_cycle;Signal;HPM_P1;HPM_P2
2023/01/07 00:01:14;;;;;;;3.30;1.47;;;;;;;11.84;77.83;101107.72;5085696;28;20237;-60
2023/01/07 00:03:42;;;;;;;3.13;1.37;;;;;;;11.90;77.35;101113.31;5086191;28;20301;-61
2023/01/07 00:06:13;;;;;;;2.73;1.30;;;;;;;11.90;77.10;101101.81;5086744;28;20238;-60
2023/01/07 00:08:43;;;;;;;3.50;1.40;;;;;;;11.80;77.38;101098.34;5088055;28;20851;-60
2023/01/07 00:11:15;;;;;;;3.67;1.57;;;;;;;11.75;77.47;101104.09;5086132;28;20198;-60
2023/01/07 00:13:44;;;;;;;2.80;1.43;;;;;;;11.69;78.07;101105.47;5086845;28;20219;-61
2023/01/07 00:16:15;;;;;;;2.07;1.40;;;;;;;11.71;77.72;101107.94;5099836;28;20241;-58
2023/01/07 00:18:44;;;;;;;2.83;1.53;;;;;;;11.68;77.90;101101.13;5105662;28;20676;-60
2023/01/07 00:21:14;;;;;;;5.10;1.70;;;;;;;11.66;77.89;101099.56;5107134;28;20773;-58
2023/01/07 00:23:43;;;;;;;4.00;1.50;;;;;;;11.64;77.93;101097.06;5106255;28;20606;-58
2023/01/07 00:26:13;;;;;;;4.63;1.90;;;;;;;11.58;78.31;101094.97;5105597;28;20226;-61
2023/01/07 00:28:45;;;;;;;2.67;1.60;;;;;;;11.61;78.18;101089.34;5105647;28;20202;-60
2023/01/07 00:31:15;;;;;;;3.00;1.50;;;;;;;11.58;78.50;101081.69;5102789;28;20198;-57
2023/01/07 00:33:50;;;;;;;4.30;1.50;;;;;;;11.62;78.40;101076.91;5106837;28;20651;-59
2023/01/07 00:36:19;;;;;;;4.90;1.90;;;;;;;11.62;78.23;101082.22;5103096;28;20209;-59
2023/01/07 00:38:47;;;;;;;5.07;1.77;;;;;;;11.54;78.43;101079.44;5106395;28;20971;-60
2023/01/07 00:41:14;;;;;;;5.23;2.43;;;;;;;11.51;78.74;101077.06;5105758;28;20694;-59
2023/01/07 00:43:43;;;;;;;5.13;1.97;;;;;;;11.57;78.67;101074.69;5106176;28;20645;-59
2023/01/07 00:46:13;;;;;;;2.83;1.43;;;;;;;11.58;78.65;101081.69;5107483;28;20210;-59
2023/01/07 00:48:41;;;;;;;3.07;1.40;;;;;;;11.60;78.44;101066.44;5107114;28;20208;-59
2023/01/07 00:51:10;;;;;;;4.77;1.80;;;;;;;11.61;78.01;101069.91;5107119;28;20728;-58
2023/01/07 00:53:38;;;;;;;3.37;2.03;;;;;;;11.58;77.95;101065.75;5105737;28;20570;-59
2023/01/07 00:56:06;;;;;;;5.93;1.97;;;;;;;11.57;78.32;101068.53;5106822;28;20194;-59
2023/01/07 00:58:34;;;;;;;3.80;1.83;;;;;;;11.58;78.10;101059.59;5104777;28;20247;-59
2023/01/07 01:01:04;;;;;;;3.80;2.00;;;;;;;11.63;77.42;101057.34;5105749;28;20237;-61
2023/01/07 01:03:33;;;;;;;4.03;1.80;;;;;;;11.65;77.39;101052.72;5106034;28;20242;-59
2023/01/07 01:06:02;;;;;;;6.30;1.70;;;;;;;11.69;76.62;101055.00;5105949;28;20672;-59
2023/01/07 01:08:30;;;;;;;4.63;2.10;;;;;;;11.65;76.95;101052.72;5103967;28;20312;-59
2023/01/07 01:11:03;;;;;;;5.57;2.17;;;;;;;11.62;76.80;101056.50;5106505;28;20294;-59
2023/01/07 01:13:31;;;;;;;4.20;2.17;;;;;;;11.63;76.47;101052.88;5104599;28;20202;-59
2023/01/07 01:15:59;;;;;;;3.50;1.83;;;;;;;11.68;76.32;101055.97;5105286;28;20778;-59
2023/01/07 01:18:28;;;;;;;4.07;2.20;;;;;;;11.72;75.78;101045.03;5105741;28;20216;-59
2023/01/07 01:20:56;;;;;;;3.57;2.03;;;;;;;11.62;76.01;101051.19;5106218;28;20340;-59
2023/01/07 01:23:24;;;;;;;3.50;2.10;;;;;;;11.63;76.08;101054.69;5104721;28;20656;-59
2023/01/07 01:25:51;;;;;;;4.97;2.10;;;;;;;11.66;75.63;101057.91;5104505;28;20928;-59
2023/01/07 01:28:19;;;;;;;4.03;2.10;;;;;;;11.64;75.59;101054.56;5105940;28;20693;-59
2023/01/07 01:30:54;;;;;;;3.97;2.07;;;;;;;11.59;76.00;101054.16;5107065;28;20209;-59
2023/01/07 01:33:22;;;;;;;2.90;2.00;;;;;;;11.54;76.18;101048.41;5105250;28;20202;-58
2023/01/07 01:35:51;;;;;;;3.57;1.93;;;;;;;11.54;76.31;101048.41;5105830;27;20205;-59
2023/01/07 01:38:19;;;;;;;3.97;2.23;;;;;;;11.49;76.52;101045.34;5104509;28;20210;-59
2023/01/07 01:40:46;;;;;;;3.93;2.03;;;;;;;11.53;77.04;101038.75;5105725;28;20232;-59
2023/01/07 01:43:32;;;;;;;5.63;2.50;;;;;;;11.60;76.42;101047.84;5104634;28;20651;-60
2023/01/07 01:46:03;;;;;;;6.37;2.20;;;;;;;11.69;76.26;101047.00;5104461;28;20219;-59
2023/01/07 01:48:35;;;;;;;4.63;2.23;;;;;;;11.65;75.99;101045.59;5106375;28;20212;-60
2023/01/07 01:51:04;;;;;;;4.93;2.43;;;;;;;11.64;75.98;101048.41;5104836;28;20209;-59
2023/01/07 01:53:35;;;;;;;4.63;2.30;;;;;;;11.60;76.05;101042.53;5104171;28;20221;-61
2023/01/07 01:56:07;;;;;;;4.50;2.30;;;;;;;11.57;76.33;101037.50;5103807;28;20300;-59
2023/01/07 01:58:38;;;;;;;5.83;2.70;;;;;;;11.57;76.29;101029.53;5103206;28;20278;-59
2023/01/07 02:01:06;;;;;;;6.03;2.90;;;;;;;11.55;76.64;101028.00;5103725;28;20620;-59
2023/01/07 02:03:36;;;;;;;3.87;2.13;;;;;;;11.56;76.55;101024.34;5104662;28;20396;-60
2023/01/07 02:06:09;;;;;;;3.90;2.30;;;;;;;11.56;76.48;101025.19;5103708;28;20199;-60
2023/01/07 02:08:37;;;;;;;5.93;2.50;;;;;;;11.54;76.45;101028.97;5103636;28;20206;-60
2023/01/07 02:11:17;;;;;;;3.60;2.20;;;;;;;11.52;76.39;101029.09;5105274;28;20205;-60
2023/01/07 02:14:00;;;;;;;4.10;2.30;;;;;;;11.51;76.11;101019.47;5103583;28;20310;-59
2023/01/07 02:16:35;;;;;;;7.13;2.67;;;;;;;11.49;76.67;101017.94;5105425;28;20248;-59
2023/01/07 02:19:28;;;;;;;5.23;2.43;;;;;;;11.44;76.97;101015.69;5104008;28;20724;-59
2023/01/07 02:22:05;;;;;;;3.83;2.17;;;;;;;11.40;76.97;101009.00;5104816;28;20295;-60
2023/01/07 02:25:01;;;;;;;5.93;2.40;;;;;;;11.37;77.16;101008.44;5103411;28;20241;-61
2023/01/07 02:28:01;;;;;;;5.80;2.57;;;;;;;11.39;77.15;101007.31;5104542;28;20973;-60
2023/01/07 02:30:47;;;;;;;4.70;2.60;;;;;;;11.36;77.10;101007.59;5080271;28;20209;-59
2023/01/07 02:33:26;;;;;;;4.00;2.50;;;;;;;11.40;77.14;100998.38;5104879;28;20209;-60
2023/01/07 02:36:32;;;;;;;3.93;2.23;;;;;;;11.40;76.92;100995.72;5103539;28;20220;-60
2023/01/07 02:39:13;;;;;;;4.30;2.40;;;;;;;11.37;77.04;100998.66;5020625;28;20208;-60
2023/01/07 02:41:48;;;;;;;4.93;2.40;;;;;;;11.31;77.36;100991.25;5018039;28;20778;-59
2023/01/07 02:44:25;;;;;;;5.03;2.57;;;;;;;11.34;77.46;100988.31;5072913;28;20211;-60
2023/01/07 02:47:01;;;;;;;4.97;2.70;;;;;;;11.31;77.50;100977.97;5103089;28;20213;-60
2023/01/07 02:49:30;;;;;;;4.17;2.50;;;;;;;11.24;77.67;100982.19;5103938;28;20201;-60
2023/01/07 02:52:16;;;;;;;4.33;2.30;;;;;;;11.27;77.58;100979.22;5102391;28;20202;-60
2023/01/07 02:54:45;;;;;;;5.70;2.43;;;;;;;11.27;77.78;100973.91;5103028;28;20215;-60
2023/01/07 02:57:42;;;;;;;4.73;2.33;;;;;;;11.27;77.30;100973.91;5099922;28;20308;-60
2023/01/07 03:00:18;;;;;;;4.33;2.37;;;;;;;11.18;77.98;100961.47;5103212;28;20271;-59
2023/01/07 03:02:58;;;;;;;5.63;2.70;;;;;;;11.11;78.59;100961.19;5102693;28;20901;-59
2023/01/07 03:05:41;;;;;;;5.20;2.87;;;;;;;11.17;78.73;100954.53;5102541;28;20287;-60
2023/01/07 03:08:25;;;;;;;5.80;2.97;;;;;;;11.25;78.05;100959.97;5103449;28;20243;-61
2023/01/07 03:10:59;;;;;;;7.37;2.90;;;;;;;11.33;77.92;100960.09;5103804;28;20212;-61
2023/01/07 03:13:34;;;;;;;4.80;2.90;;;;;;;11.29;77.89;100951.56;5103023;28;20202;-59
2023/01/07 03:16:05;;;;;;;5.47;2.70;;;;;;;11.34;78.18;100955.63;5097741;28;20270;-60
2023/01/07 03:18:37;;;;;;;5.87;2.93;;;;;;;11.34;77.94;100948.50;5100979;28;21026;-60
2023/01/07 03:21:12;;;;;;;6.47;2.97;;;;;;;11.33;77.95;100949.47;5104655;28;20208;-59
2023/01/07 03:23:44;;;;;;;6.53;2.90;;;;;;;11.27;78.24;100950.84;5100889;28;20300;-60
2023/01/07 03:26:13;;;;;;;5.57;3.40;;;;;;;11.30;78.40;100953.25;5104836;28;20224;-59
2023/01/07 03:28:42;;;;;;;7.40;3.20;;;;;;;11.33;78.15;100941.50;5103161;28;20215;-60
2023/01/07 03:31:14;;;;;;;5.13;2.67;;;;;;;11.41;77.78;100935.47;5103378;28;20228;-60
2023/01/07 03:33:49;;;;;;;5.60;3.10;;;;;;;11.41;77.32;100938.97;5104504;28;20212;-60
2023/01/07 03:36:22;;;;;;;5.30;3.03;;;;;;;11.34;77.71;100937.88;5105251;28;20204;-59
2023/01/07 03:38:52;;;;;;;5.47;3.13;;;;;;;11.34;77.76;100935.22;5102413;28;20596;-60
2023/01/07 03:44:01;;;;;;;6.93;3.07;;;;;;;11.24;77.91;100934.38;5058667;28;20216;-59
2023/01/07 03:46:29;;;;;;;5.60;2.80;;;;;;;11.23;78.17;100938.03;5103788;28;20560;-60
2023/01/07 03:48:57;;;;;;;5.53;2.70;;;;;;;11.21;78.24;100930.19;5103007;28;20312;-59
2023/01/07 03:51:26;;;;;;;4.77;2.50;;;;;;;11.18;78.44;100932.28;5103825;28;20289;-59
2023/01/07 03:53:53;;;;;;;4.00;2.60;;;;;;;11.16;78.67;100932.44;5103959;28;20219;-59
2023/01/07 03:56:21;;;;;;;5.17;2.93;;;;;;;11.22;78.62;100925.72;5102853;28;20237;-60
2023/01/07 03:58:49;;;;;;;4.50;2.60;;;;;;;11.21;78.49;100924.88;5103750;28;20209;-61
2023/01/07 04:01:17;;;;;;;5.13;3.03;;;;;;;11.22;78.42;100915.09;5103550;28;20212;-58
2023/01/07 04:03:44;;;;;;;5.67;2.80;;;;;;;11.29;78.01;100916.22;5104987;28;20241;-60
2023/01/07 04:06:12;;;;;;;4.60;2.60;;;;;;;11.19;78.52;100915.38;5100969;28;20212;-59
2023/01/07 04:08:41;;;;;;;5.10;2.63;;;;;;;11.20;78.29;100912.59;5103049;28;20217;-59
2023/01/07 04:11:09;;;;;;;4.13;2.40;;;;;;;11.16;78.64;100910.38;5103055;28;20899;-59
2023/01/07 04:13:37;;;;;;;4.50;2.50;;;;;;;11.18;78.43;100911.88;5102487;28;20211;-60
2023/01/07 04:16:05;;;;;;;7.03;2.70;;;;;;;11.12;79.01;100907.16;5102687;28;20643;-59
2023/01/07 04:18:33;;;;;;;4.07;2.20;;;;;;;11.17;79.15;100907.53;5102481;28;20221;-60
2023/01/07 04:21:00;;;;;;;4.60;2.80;;;;;;;11.23;78.79;100891.06;5102690;28;20666;-60
2023/01/07 04:23:28;;;;;;;4.77;2.70;;;;;;;11.28;78.50;100894.13;5103420;28;20240;-59
2023/01/07 04:25:57;;;;;;;6.77;2.77;;;;;;;11.26;78.47;100884.63;5107248;28;20224;-59
2023/01/07 04:28:25;;;;;;;4.60;2.60;;;;;;;11.21;79.03;100882.41;5105863;28;20223;-59
2023/01/07 04:30:53;;;;;;;5.10;2.63;;;;;;;11.26;78.86;100887.28;5107676;28;20215;-59
2023/01/07 04:33:21;;;;;;;4.73;2.50;;;;;;;11.31;78.21;100883.22;5106749;28;20209;-59
2023/01/07 04:35:49;;;;;;;6.47;2.90;;;;;;;11.25;78.54;100882.97;5106139;27;20685;-59
2023/01/07 04:38:17;;;;;;;4.20;2.70;;;;;;;11.24;78.54;100884.78;5105321;28;20209;-58
2023/01/07 04:40:44;;;;;;;4.53;2.73;;;;;;;11.25;78.55;100875.00;5103656;28;20645;-60
2023/01/07 04:43:14;;;;;;;4.80;2.90;;;;;;;11.25;78.55;100872.34;5104360;28;20238;-58
2023/01/07 04:45:41;;;;;;;4.90;2.77;;;;;;;11.23;78.89;100874.31;5106026;28;20219;-59
2023/01/07 04:48:09;;;;;;;4.07;2.60;;;;;;;11.22;78.42;100862.00;5103588;28;20218;-59
2023/01/07 04:50:37;;;;;;;5.50;2.53;;;;;;;11.21;78.68;100865.66;5106012;28;20223;-59
2023/01/07 04:53:05;;;;;;;6.20;2.90;;;;;;;11.21;79.22;100868.28;5106286;28;20200;-60
2023/01/07 04:55:32;;;;;;;6.40;3.07;;;;;;;11.25;78.80;100862.56;5105578;28;20729;-60
2023/01/07 04:58:00;;;;;;;5.20;2.97;;;;;;;11.18;79.52;100860.59;5105913;28;20737;-60
2023/01/07 05:00:29;;;;;;;5.13;2.90;;;;;;;11.19;79.41;100855.16;5106559;28;20213;-60
2023/01/07 05:02:57;;;;;;;4.87;3.30;;;;;;;11.20;79.21;100861.31;5106775;28;20718;-58
2023/01/07 05:05:25;;;;;;;5.77;2.90;;;;;;;11.15;79.54;100850.28;5105526;28;20216;-58
2023/01/07 05:07:52;;;;;;;5.13;3.37;;;;;;;11.09;79.56;100856.16;5106653;28;20204;-59
2023/01/07 05:10:20;;;;;;;7.43;3.07;;;;;;;11.04;80.14;100851.28;5106292;28;20205;-58
2023/01/07 05:12:48;;;;;;;4.73;3.10;;;;;;;11.09;80.49;100849.03;5106872;28;20216;-58
2023/01/07 05:15:16;;;;;;;7.00;3.60;;;;;;;11.16;79.70;100844.00;5105893;28;20240;-59
2023/01/07 05:17:45;;;;;;;5.97;3.27;;;;;;;11.13;79.43;100837.16;5106204;28;20668;-60
2023/01/07 05:20:14;;;;;;;6.67;3.57;;;;;;;11.10;79.78;100841.91;5102315;28;20568;-61
2023/01/07 05:22:41;;;;;;;6.13;3.40;;;;;;;11.13;79.66;100841.63;5105829;28;20581;-60
2023/01/07 05:25:10;;;;;;;6.23;3.43;;;;;;;11.20;79.12;100832.09;5105109;28;20228;-59
2023/01/07 05:27:37;;;;;;;5.80;3.43;;;;;;;11.17;79.28;100833.22;5107623;28;20208;-60
2023/01/07 05:30:06;;;;;;;6.30;3.60;;;;;;;11.16;79.60;100830.75;5104048;28;20215;-59
2023/01/07 05:32:34;;;;;;;7.03;3.77;;;;;;;11.21;79.56;100831.13;5105043;28;20561;-60
2023/01/07 05:35:03;;;;;;;6.80;4.03;;;;;;;11.17;79.91;100822.59;5103977;28;20207;-60
2023/01/07 05:37:31;;;;;;;6.30;3.87;;;;;;;11.19;79.41;100825.13;5107246;28;20274;-60
2023/01/07 05:39:59;;;;;;;6.87;3.40;;;;;;;11.15;79.61;100819.28;5101276;28;20832;-60
2023/01/07 05:42:26;;;;;;;7.03;4.13;;;;;;;11.19;79.65;100819.81;5102770;27;20276;-60
2023/01/07 05:44:54;;;;;;;6.30;3.63;;;;;;;11.18;80.15;100818.13;5106863;28;20219;-59
2023/01/07 05:47:22;;;;;;;6.40;3.67;;;;;;;11.32;79.51;100817.69;5104343;28;20619;-60
2023/01/07 05:49:49;;;;;;;8.00;3.70;;;;;;;11.36;79.34;100818.22;5104577;28;20232;-61
2023/01/07 05:52:18;;;;;;;5.20;3.30;;;;;;;11.39;78.47;100809.97;5103599;28;20215;-61
2023/01/07 05:54:46;;;;;;;7.83;3.93;;;;;;;11.37;78.76;100812.78;5105989;28;20206;-58
2023/01/07 05:57:14;;;;;;;6.63;3.77;;;;;;;11.35;78.64;100814.72;5103095;28;20218;-60
2023/01/07 05:59:41;;;;;;;8.13;3.47;;;;;;;11.24;79.39;100807.81;5103920;28;20209;-61
2023/01/07 06:02:09;;;;;;;6.20;3.53;;;;;;;11.28;79.18;100811.00;5105772;28;20216;-59
2023/01/07 06:04:37;;;;;;;5.97;3.73;;;;;;;11.34;78.91;100807.78;5103109;28;20250;-60
2023/01/07 06:07:05;;;;;;;7.33;3.80;;;;;;;11.31;78.89;100805.41;5105318;28;20556;-60
2023/01/07 06:09:34;;;;;;;6.87;3.40;;;;;;;11.29;78.83;100805.53;5103148;28;20205;-58
2023/01/07 06:12:01;;;;;;;6.30;3.57;;;;;;;11.33;79.01;100806.09;5104037;28;20224;-59
2023/01/07 06:14:29;;;;;;;6.07;3.80;;;;;;;11.25;79.37;100806.00;5106130;28;20216;-60
2023/01/07 06:16:57;;;;;;;6.20;3.90;;;;;;;11.21;79.66;100801.94;5104394;28;20258;-59
2023/01/07 06:19:25;;;;;;;6.70;3.87;;;;;;;11.21;80.08;100802.78;5104007;28;20312;-60
2023/01/07 06:21:53;;;;;;;8.90;4.37;;;;;;;11.22;79.92;100796.50;5103448;28;20262;-61
2023/01/07 06:24:20;;;;;;;6.53;4.20;;;;;;;11.19;79.79;100794.09;5101140;28;20659;-60
2023/01/07 06:26:49;;;;;;;7.97;4.17;;;;;;;11.25;79.99;100792.72;5104271;28;20224;-59
2023/01/07 06:29:17;;;;;;;8.13;4.37;;;;;;;11.26;80.02;100794.34;5104393;28;20205;-59
2023/01/07 06:31:45;;;;;;;7.37;4.33;;;;;;;11.33;79.43;100790.16;5101077;28;20236;-59
2023/01/07 06:34:13;;;;;;;6.97;4.33;;;;;;;11.35;79.24;100798.81;5105144;28;20214;-60
2023/01/07 06:36:40;;;;;;;7.53;4.57;;;;;;;11.31;79.54;100789.47;5104397;28;20205;-58
2023/01/07 06:39:08;;;;;;;8.40;4.50;;;;;;;11.28;79.61;100779.13;5102793;28;20212;-60
2023/01/07 06:41:36;;;;;;;8.23;4.37;;;;;;;11.28;79.78;100784.44;5102649;28;20353;-60
2023/01/07 06:44:05;;;;;;;8.43;4.40;;;;;;;11.33;79.65;100776.91;5104895;28;20222;-60
2023/01/07 06:46:33;;;;;;;7.57;4.57;;;;;;;11.41;79.15;100777.00;5101319;28;20312;-60
2023/01/07 06:49:01;;;;;;;10.70;4.70;;;;;;;11.44;78.85;100776.69;5103764;28;20208;-60
2023/01/07 06:51:29;;;;;;;8.67;4.70;;;;;;;11.40;78.95;100772.66;5104154;28;20217;-59
2023/01/07 06:53:57;;;;;;;8.90;4.70;;;;;;;11.33;79.45;100768.94;5104595;28;20204;-59
2023/01/07 06:56:25;;;;;;;7.13;5.10;;;;;;;11.38;79.24;100761.34;5102686;28;20800;-59
2023/01/07 06:58:52;;;;;;;7.33;4.90;;;;;;;11.39;79.22;100765.69;5103876;28;20301;-58
2023/01/07 07:01:22;;;;;;;8.87;4.90;;;;;;;11.43;78.66;100755.63;5104493;28;20647;-58
2023/01/07 07:03:49;;;;;;;8.50;4.60;;;;;;;11.36;79.16;100758.00;5100905;28;20224;-59
2023/01/07 07:06:17;;;;;;;10.17;5.10;;;;;;;11.23;80.02;100753.03;5101342;28;20220;-60
2023/01/07 07:08:45;;;;;;;9.13;4.87;;;;;;;11.22;80.48;100756.66;5102073;28;20215;-59
2023/01/07 07:11:13;;;;;;;10.23;4.80;;;;;;;11.24;80.08;100756.53;5101913;28;20209;-59
2023/01/07 07:13:40;;;;;;;7.37;4.80;;;;;;;11.21;80.30;100756.81;5104991;28;20204;-59
2023/01/07 07:16:08;;;;;;;10.90;4.33;;;;;;;11.24;80.18;100759.19;5103844;28;20301;-59
2023/01/07 07:18:37;;;;;;;8.17;4.23;;;;;;;11.30;79.86;100754.13;5102649;28;20235;-60
2023/01/07 07:21:05;;;;;;;6.13;3.73;;;;;;;11.27;79.39;100742.94;5104398;28;20214;-60
2023/01/07 07:23:33;;;;;;;7.20;4.10;;;;;;;11.20;79.95;100747.16;5103270;28;20234;-60
2023/01/07 07:26:01;;;;;;;9.13;4.30;;;;;;;11.14;80.36;100735.31;5101809;28;20269;-60
2023/01/07 07:28:28;;;;;;;7.53;4.00;;;;;;;11.11;80.71;100738.25;5101122;28;20198;-60
2023/01/07 07:30:56;;;;;;;5.60;3.63;;;;;;;11.17;80.26;100739.50;5103147;28;20212;-60
2023/01/07 07:33:24;;;;;;;6.20;3.90;;;;;;;11.20;80.40;100741.84;5104687;28;20575;-60
2023/01/07 07:35:54;;;;;;;6.97;4.13;;;;;;;11.21;79.98;100735.56;5107292;28;20210;-60
2023/01/07 07:38:22;;;;;;;6.63;3.50;;;;;;;11.16;80.38;100735.19;5105898;28;20217;-60
2023/01/07 07:40:50;;;;;;;6.20;4.07;;;;;;;11.07;80.89;100730.75;5107767;28;20205;-59
2023/01/07 07:43:18;;;;;;;6.47;3.80;;;;;;;11.02;81.36;100722.38;5107009;28;20303;-60
2023/01/07 07:45:45;;;;;;;7.77;3.90;;;;;;;11.06;81.15;100727.25;5104997;28;20225;-61
2023/01/07 07:48:15;;;;;;;5.03;3.10;;;;;;;11.07;81.37;100725.44;5107435;28;20668;-58
2023/01/07 07:50:42;;;;;;;7.23;3.37;;;;;;;11.10;80.75;100720.66;5103149;28;20208;-62
2023/01/07 07:53:12;;;;;;;9.03;4.07;;;;;;;11.09;81.07;100723.44;5105579;28;20573;-60
2023/01/07 07:55:40;;;;;;;6.83;3.73;;;;;;;11.10;80.99;100715.34;5100764;28;20200;-59
2023/01/07 07:58:08;;;;;;;5.40;3.53;;;;;;;11.08;81.04;100716.50;5103662;28;20213;-60
2023/01/07 08:00:36;;;;;;;6.70;4.13;;;;;;;11.09;80.89;100713.69;5103480;28;20771;-59
2023/01/07 08:03:04;;;;;;;7.70;3.87;;;;;;;11.04;81.23;100707.97;5101813;28;20205;-60
2023/01/07 08:05:32;;;;;;;5.53;3.33;;;;;;;11.06;81.33;100716.63;5103682;28;20677;-61
2023/01/07 08:08:00;;;;;;;6.03;3.57;;;;;;;11.16;81.20;100719.25;5105988;28;20547;-61
2023/01/07 08:10:29;;;;;;;8.67;3.77;;;;;;;11.22;80.37;100711.53;5106834;28;20212;-61
2023/01/07 08:12:57;;;;;;;6.37;3.67;;;;;;;11.21;80.02;100711.69;5107570;28;20204;-59
2023/01/07 08:15:25;;;;;;;7.73;4.50;;;;;;;11.16;80.40;100708.66;5106104;28;20396;-59
2023/01/07 08:17:59;;;;;;;7.63;4.17;;;;;;;11.11;80.44;100708.22;5105808;28;20273;-59
2023/01/07 08:20:27;;;;;;;9.10;4.50;;;;;;;11.14;80.53;100702.63;5105631;28;20208;-60
2023/01/07 08:22:58;;;;;;;7.00;3.70;;;;;;;11.22;79.64;100700.09;5108139;28;20296;-59
2023/01/07 08:25:26;;;;;;;8.03;4.07;;;;;;;11.20;79.81;100704.69;5103459;28;20224;-61
2023/01/07 08:27:56;;;;;;;8.33;4.37;;;;;;;11.22;79.75;100697.44;5103611;28;20287;-60
2023/01/07 08:30:25;;;;;;;5.67;3.43;;;;;;;11.23;79.53;100699.09;5105337;28;20207;-60
2023/01/07 08:32:53;;;;;;;8.60;5.27;;;;;;;11.23;79.64;100701.75;5107710;28;20214;-59
2023/01/07 08:35:21;;;;;;;11.43;6.10;;;;;;;11.25;79.39;100689.19;5105182;28;20599;-60
2023/01/07 08:37:49;;;;;;;9.50;5.50;;;;;;;11.29;79.17;100687.88;5107033;28;20673;-60
2023/01/07 08:40:17;;;;;;;6.90;4.43;;;;;;;11.37;78.58;100681.84;5102615;28;20208;-60
2023/01/07 08:42:44;;;;;;;6.63;4.10;;;;;;;11.32;78.93;100677.00;5105314;28;20215;-60
2023/01/07 08:45:14;;;;;;;7.63;4.43;;;;;;;11.32;78.58;100680.47;5105388;28;20298;-59
2023/01/07 08:47:46;;;;;;;7.77;4.83;;;;;;;11.28;78.68;100684.41;5102482;28;20568;-60
2023/01/07 08:50:14;;;;;;;8.63;5.37;;;;;;;11.35;78.74;100692.59;5104814;28;20213;-59
2023/01/07 08:52:41;;;;;;;9.57;4.60;;;;;;;11.44;78.59;100685.56;5106340;28;20213;-59
2023/01/07 08:55:09;;;;;;;6.10;3.57;;;;;;;11.55;77.95;100672.94;5106729;28;20664;-60
2023/01/07 08:57:37;;;;;;;6.20;3.50;;;;;;;11.58;77.83;100671.81;5105830;28;20209;-60
2023/01/07 09:00:06;;;;;;;6.83;3.80;;;;;;;11.64;77.39;100671.19;5104788;28;20300;-60
2023/01/07 09:02:35;;;;;;;5.87;3.80;;;;;;;11.56;77.79;100673.78;5106179;28;20685;-59
2023/01/07 09:05:04;;;;;;;6.70;4.20;;;;;;;11.64;77.96;100665.88;5104652;28;20229;-59
2023/01/07 09:07:32;;;;;;;6.00;3.63;;;;;;;11.67;76.90;100663.78;5106575;28;20269;-59
2023/01/07 09:10:00;;;;;;;9.10;4.03;;;;;;;11.65;76.59;100657.78;5103639;28;20219;-60
2023/01/07 09:12:27;;;;;;;5.83;3.13;;;;;;;11.56;76.23;100648.03;5102841;28;20292;-60
2023/01/07 09:14:55;;;;;;;5.23;2.93;;;;;;;11.57;75.73;100652.38;5103721;28;20239;-59
2023/01/07 09:17:23;;;;;;;4.13;2.43;;;;;;;11.49;75.51;100644.31;5106536;28;20642;-59
2023/01/07 09:19:52;;;;;;;5.33;2.90;;;;;;;11.46;75.98;100649.91;5106498;28;20662;-60
2023/01/07 09:22:20;;;;;;;4.40;2.73;;;;;;;11.49;75.88;100640.84;5105371;28;20566;-60
2023/01/07 09:24:47;;;;;;;5.43;2.43;;;;;;;11.51;75.72;100642.38;5103851;28;20826;-61
2023/01/07 09:27:15;;;;;;;4.23;2.67;;;;;;;11.55;75.32;100630.44;5106827;28;20202;-59
2023/01/07 09:29:43;;;;;;;4.53;2.70;;;;;;;11.58;75.49;100632.81;5106467;28;20346;-60
2023/01/07 09:32:11;;;;;;;5.17;2.40;;;;;;;11.74;74.67;100625.97;5105872;28;20265;-60
2023/01/07 09:34:39;;;;;;;6.03;2.30;;;;;;;11.87;73.11;100621.16;5106189;28;20214;-59
2023/01/07 09:37:08;;;;;;;4.50;2.70;;;;;;;11.91;72.49;100623.34;5104330;28;20217;-60
2023/01/07 09:39:36;;;;;;;5.63;2.43;;;;;;;11.99;72.23;100618.09;5105369;28;20234;-60
2023/01/07 09:42:11;;;;;;;4.03;2.07;;;;;;;12.19;70.51;100624.06;5101687;28;20623;-59
2023/01/07 09:44:53;;;;;;;5.60;2.00;;;;;;;12.17;69.60;100619.88;5104787;28;20205;-60
2023/01/07 09:47:26;;;;;;;4.73;2.10;;;;;;;12.25;68.67;100618.13;5103863;28;20206;-60
2023/01/07 09:49:58;;;;;;;4.33;1.60;;;;;;;12.30;67.81;100615.84;5105982;28;20725;-59
2023/01/07 09:52:31;;;;;;;3.53;1.40;;;;;;;12.37;67.34;100622.22;5102121;28;20203;-61
2023/01/07 09:55:05;;;;;;;3.30;1.70;;;;;;;12.44;66.71;100622.41;5102446;28;20336;-59
2023/01/07 09:57:33;;;;;;;3.33;1.63;;;;;;;12.41;66.45;100620.88;5104374;28;20226;-60
2023/01/07 10:00:02;;;;;;;3.23;1.40;;;;;;;12.47;66.46;100623.94;5106271;28;20209;-58
2023/01/07 10:02:40;;;;;;;3.20;1.80;;;;;;;12.43;65.73;100616.25;5104646;28;20214;-59
2023/01/07 10:05:21;;;;;;;2.13;1.33;;;;;;;12.40;65.97;100616.56;5102801;28;20261;-60
2023/01/07 10:07:58;;;;;;;3.53;1.67;;;;;;;12.36;66.04;100609.91;5102040;28;20244;-59
2023/01/07 10:10:52;;;;;;;5.03;1.87;;;;;;;12.28;66.03;100612.50;5101368;28;20220;-61
2023/01/07 10:13:42;;;;;;;4.53;1.47;;;;;;;12.31;65.61;100600.72;5099664;28;20217;-60
2023/01/07 10:16:20;;;;;;;2.23;1.00;;;;;;;12.26;65.55;100601.19;5100395;28;20681;-61
2023/01/07 10:18:58;;;;;;;5.47;1.63;;;;;;;12.23;65.31;100604.16;5104701;28;20206;-60
2023/01/07 10:21:33;;;;;;;2.77;1.40;;;;;;;12.30;65.43;100599.91;5102588;28;20329;-60
2023/01/07 10:24:09;;;;;;;3.33;1.37;;;;;;;12.26;65.37;100587.91;5101702;28;20197;-61
2023/01/07 10:26:41;;;;;;;3.27;1.30;;;;;;;12.29;65.55;100594.72;5102182;28;20287;-61
2023/01/07 10:29:14;;;;;;;3.87;1.20;;;;;;;12.30;65.88;100594.59;5102965;28;20205;-60
2023/01/07 10:31:43;;;;;;;3.80;2.20;;;;;;;12.30;66.52;100588.44;5103631;28;20208;-59
2023/01/07 10:34:15;;;;;;;5.43;1.97;;;;;;;12.22;67.32;100564.44;5102375;28;20214;-60
2023/01/07 10:36:57;;;;;;;3.13;1.50;;;;;;;12.25;67.22;100558.78;5100427;28;20898;-59
2023/01/07 10:39:35;;;;;;;4.40;1.50;;;;;;;12.26;66.26;100553.31;5104890;28;20655;-60
2023/01/07 10:42:09;;;;;;;3.10;1.50;;;;;;;12.17;66.28;100540.97;5103395;28;20240;-60
2023/01/07 10:45:20;;;;;;;3.70;1.30;;;;;;;12.08;66.03;100544.56;5101593;28;20206;-60
2023/01/07 10:47:59;;;;;;;5.00;1.30;;;;;;;11.96;65.43;100541.31;5096886;28;20206;-60
2023/01/07 10:50:48;;;;;;;4.33;1.10;;;;;;;12.04;64.68;100541.41;5103578;28;20671;-59
2023/01/07 10:53:27;;;;;;;3.17;1.23;;;;;;;12.06;64.64;100530.59;5101502;28;20202;-60
2023/01/07 10:56:07;;;;;;;1.90;1.00;;;;;;;12.05;64.58;100528.91;5103565;28;20213;-58
2023/01/07 10:58:39;;;;;;;2.53;1.20;;;;;;;12.09;64.45;100526.78;5099749;28;20205;-59
2023/01/07 11:01:09;;;;;;;2.60;1.17;;;;;;;12.13;64.28;100534.31;5100443;28;20244;-59
2023/01/07 11:03:39;;;;;;;2.33;1.00;;;;;;;12.11;64.59;100519.50;5100329;28;20296;-59
2023/01/07 11:06:11;;;;;;;4.27;1.20;;;;;;;12.11;64.40;100509.72;5101159;28;20229;-59
2023/01/07 11:08:41;;;;;;;4.03;1.53;;;;;;;12.10;64.58;100505.38;5099354;28;20693;-60
2023/01/07 11:11:15;;;;;;;1.43;0.67;;;;;;;12.04;64.57;100504.19;5103794;28;20206;-60
2023/01/07 11:13:50;;;;;;;2.60;1.10;;;;;;;12.08;64.72;100504.69;5104845;28;20216;-59
2023/01/07 11:16:23;;;;;;;2.30;0.97;;;;;;;12.05;64.25;100499.69;5101062;28;20231;-60
2023/01/07 11:18:57;;;;;;;2.23;1.07;;;;;;;12.02;64.40;100506.16;5103616;28;20863;-59
2023/01/07 11:21:32;;;;;;;2.90;1.23;;;;;;;11.99;64.23;100497.66;5103290;28;20222;-61
2023/01/07 11:24:31;;;;;;;1.87;0.90;;;;;;;11.99;64.82;100492.34;5100455;28;20289;-61
2023/01/07 11:27:04;;;;;;;3.83;1.60;;;;;;;12.04;64.65;100484.75;5101132;28;20336;-60
2023/01/07 11:29:37;;;;;;;1.70;0.90;;;;;;;12.03;64.54;100481.25;5098092;28;20215;-61
2023/01/07 11:32:17;;;;;;;2.60;1.30;;;;;;;12.07;64.10;100460.50;5101202;28;20655;-59
2023/01/07 11:34:51;;;;;;;3.07;1.33;;;;;;;11.99;64.94;100474.59;5107889;27;20301;-59
2023/01/07 11:37:32;;;;;;;2.13;1.20;;;;;;;12.05;65.15;100465.97;5105049;28;20202;-60
2023/01/07 11:40:02;;;;;;;6.60;1.80;;;;;;;12.05;65.84;100473.09;5105243;28;20202;-61
2023/01/07 11:42:40;;;;;;;2.93;1.40;;;;;;;12.17;64.84;100458.56;5108234;28;20205;-61
2023/01/07 11:45:13;;;;;;;2.60;1.07;;;;;;;12.07;64.86;100461.34;5106667;28;20846;-60